createdAt,value
2022-10-13T00:01:11.969Z,68.70
2022-10-13T00:03:39.934Z,68.60
2022-10-13T00:06:08.496Z,68.60
2022-10-13T00:08:36.080Z,68.70
2022-10-13T00:11:09.066Z,68.80
2022-10-13T00:13:35.859Z,68.90
2022-10-13T00:16:03.063Z,68.80
2022-10-13T00:18:30.495Z,68.90
2022-10-13T00:20:57.429Z,68.90
2022-10-13T00:23:24.712Z,68.90
2022-10-13T00:25:51.706Z,68.90
2022-10-13T00:28:19.349Z,68.80
2022-10-13T00:30:46.906Z,68.90
2022-10-13T00:33:13.942Z,68.90
2022-10-13T00:35:45.514Z,69.00
2022-10-13T00:38:15.259Z,69.00
2022-10-13T00:40:46.381Z,69.00
2022-10-13T00:43:24.098Z,69.10
2022-10-13T00:45:51.211Z,69.10
2022-10-13T00:48:24.008Z,69.10
2022-10-13T00:50:51.513Z,69.20
2022-10-13T00:53:19.942Z,69.20
2022-10-13T00:55:47.535Z,69.30
2022-10-13T00:58:16.388Z,69.30
2022-10-13T01:00:45.152Z,69.40
2022-10-13T01:03:17.023Z,69.50
2022-10-13T01:05:44.213Z,70.40
2022-10-13T01:08:11.340Z,69.50
2022-10-13T01:10:58.449Z,69.40
2022-10-13T01:13:36.144Z,69.40
2022-10-13T01:16:24.164Z,69.40
2022-10-13T01:18:51.261Z,69.40
2022-10-13T01:21:20.261Z,69.30
2022-10-13T01:24:22.781Z,69.30
2022-10-13T01:26:58.461Z,69.40
2022-10-13T01:29:44.088Z,69.40
2022-10-13T01:32:10.916Z,69.40
2022-10-13T01:34:44.584Z,69.50
2022-10-13T01:37:18.783Z,69.50
2022-10-13T01:39:45.620Z,69.40
2022-10-13T01:42:18.500Z,69.40
2022-10-13T01:44:49.290Z,69.50
2022-10-13T01:47:16.619Z,69.60
2022-10-13T01:49:45.149Z,69.60
2022-10-13T01:52:16.865Z,69.50
2022-10-13T01:54:47.642Z,69.50
2022-10-13T01:57:34.059Z,69.40
2022-10-13T02:00:13.190Z,69.40
2022-10-13T02:02:44.114Z,69.30
2022-10-13T02:05:11.043Z,69.20
2022-10-13T02:07:44.029Z,69.30
2022-10-13T02:10:27.489Z,69.40
2022-10-13T02:12:59.873Z,69.50
2022-10-13T02:15:36.859Z,69.60
2022-10-13T02:18:06.950Z,69.60
2022-10-13T02:20:33.766Z,69.70
2022-10-13T02:23:02.912Z,69.60
2022-10-13T02:25:30.477Z,69.50
2022-10-13T02:27:59.658Z,69.40
2022-10-13T02:30:30.103Z,69.50
2022-10-13T02:32:56.922Z,69.60
2022-10-13T02:35:23.744Z,69.70
2022-10-13T02:37:50.641Z,69.80
2022-10-13T02:40:17.468Z,69.80
2022-10-13T02:42:44.424Z,69.90
2022-10-13T02:45:11.259Z,69.90
2022-10-13T02:47:38.146Z,69.90
2022-10-13T02:50:05.298Z,69.90
2022-10-13T02:52:32.148Z,70.00
2022-10-13T02:54:58.915Z,70.10
2022-10-13T02:57:25.813Z,70.00
2022-10-13T02:59:52.753Z,69.90
2022-10-13T03:02:20.399Z,69.70
2022-10-13T03:04:47.824Z,69.70
2022-10-13T03:07:14.961Z,69.60
2022-10-13T03:09:41.874Z,69.70
2022-10-13T03:12:08.919Z,69.80
2022-10-13T03:14:35.748Z,69.80
2022-10-13T03:17:02.545Z,69.90
2022-10-13T03:19:29.525Z,70.00
2022-10-13T03:21:56.476Z,69.80
2022-10-13T03:24:23.321Z,69.70
2022-10-13T03:26:50.145Z,69.80
2022-10-13T03:29:20.274Z,70.00
2022-10-13T03:31:47.188Z,70.00
2022-10-13T03:34:15.672Z,70.60
2022-10-13T03:36:42.534Z,71.10
2022-10-13T03:39:09.555Z,71.40
2022-10-13T03:41:36.351Z,71.40
2022-10-13T03:44:03.239Z,71.50
2022-10-13T03:46:30.450Z,71.40
2022-10-13T03:48:58.403Z,71.20
2022-10-13T03:51:25.240Z,71.00
2022-10-13T03:53:52.670Z,70.80
2022-10-13T03:56:26.451Z,70.80
2022-10-13T03:58:55.517Z,70.80
2022-10-13T04:01:23.711Z,70.90
2022-10-13T04:03:50.863Z,71.70
2022-10-13T04:06:17.865Z,70.90
2022-10-13T04:08:44.784Z,71.20
2022-10-13T04:11:13.283Z,71.10
2022-10-13T04:13:41.555Z,71.20
2022-10-13T04:16:22.112Z,71.00
2022-10-13T04:18:54.197Z,70.90
2022-10-13T04:21:21.763Z,70.70
2022-10-13T04:23:48.521Z,70.50
2022-10-13T04:26:19.125Z,70.30
2022-10-13T04:28:46.642Z,70.30
2022-10-13T04:31:13.565Z,70.60
2022-10-13T04:33:40.467Z,70.60
2022-10-13T04:36:08.106Z,70.50
2022-10-13T04:38:35.022Z,70.60
2022-10-13T04:41:03.535Z,70.80
2022-10-13T04:43:30.796Z,71.20
2022-10-13T04:46:06.891Z,71.40
2022-10-13T04:48:33.732Z,71.60
2022-10-13T04:51:20.569Z,71.80
2022-10-13T04:53:47.771Z,71.90
2022-10-13T04:56:17.548Z,71.90
2022-10-13T04:58:45.172Z,71.80
2022-10-13T05:01:17.653Z,71.80
2022-10-13T05:03:50.639Z,71.70
2022-10-13T05:06:18.915Z,72.20
2022-10-13T05:08:48.604Z,71.20
2022-10-13T05:11:16.257Z,71.20
2022-10-13T05:13:43.336Z,71.20
2022-10-13T05:16:11.442Z,71.10
2022-10-13T05:18:38.675Z,71.10
2022-10-13T05:21:08.744Z,71.10
2022-10-13T05:23:37.477Z,71.20
2022-10-13T05:26:05.197Z,71.20
2022-10-13T05:28:32.222Z,71.10
2022-10-13T05:31:08.229Z,71.10
2022-10-13T05:33:35.028Z,71.10
2022-10-13T05:36:09.187Z,71.20
2022-10-13T05:38:37.580Z,71.30
2022-10-13T05:41:09.271Z,71.30
2022-10-13T05:43:36.337Z,71.40
2022-10-13T05:46:03.495Z,71.70
2022-10-13T05:48:30.728Z,71.90
2022-10-13T05:50:59.362Z,72.20
2022-10-13T05:53:27.996Z,72.50
2022-10-13T05:55:56.276Z,72.50
2022-10-13T05:58:23.423Z,72.50
2022-10-13T06:00:50.807Z,72.50
2022-10-13T06:03:19.188Z,72.50
2022-10-13T06:05:47.598Z,72.40
2022-10-13T06:08:14.989Z,72.50
2022-10-13T06:10:43.539Z,72.60
2022-10-13T06:13:10.376Z,72.40
2022-10-13T06:15:37.227Z,72.30
2022-10-13T06:18:08.116Z,72.20
2022-10-13T06:20:35.033Z,72.20
2022-10-13T06:23:01.819Z,72.20
2022-10-13T06:25:30.648Z,72.20
2022-10-13T06:27:57.692Z,72.20
2022-10-13T06:30:24.644Z,72.20
2022-10-13T06:32:53.085Z,72.20
2022-10-13T06:35:19.934Z,72.20
2022-10-13T06:37:48.641Z,72.10
2022-10-13T06:40:15.982Z,72.30
2022-10-13T06:42:42.746Z,72.30
2022-10-13T06:45:10.300Z,72.30
2022-10-13T06:47:39.945Z,72.30
2022-10-13T06:50:06.890Z,72.30
2022-10-13T06:52:33.685Z,72.40
2022-10-13T06:55:00.594Z,72.40
2022-10-13T06:57:29.309Z,72.40
2022-10-13T06:59:57.454Z,72.70
2022-10-13T07:02:24.270Z,72.80
2022-10-13T07:04:51.107Z,72.80
2022-10-13T07:07:17.849Z,72.70
2022-10-13T07:09:45.217Z,72.60
2022-10-13T07:12:13.188Z,72.80
2022-10-13T07:14:43.046Z,72.70
2022-10-13T07:17:11.127Z,72.70
2022-10-13T07:19:38.177Z,72.70
2022-10-13T07:22:04.996Z,72.60
2022-10-13T07:24:31.912Z,72.70
2022-10-13T07:27:00.190Z,72.80
2022-10-13T07:29:29.664Z,72.80
2022-10-13T07:31:56.449Z,72.80
2022-10-13T07:34:23.318Z,72.80
2022-10-13T07:36:50.187Z,73.10
2022-10-13T07:39:17.060Z,73.30
2022-10-13T07:41:48.717Z,73.70
2022-10-13T07:44:17.716Z,74.00
2022-10-13T07:46:44.565Z,74.20
2022-10-13T07:49:15.213Z,74.30
2022-10-13T07:51:44.363Z,74.30
2022-10-13T07:54:12.153Z,74.20
2022-10-13T07:56:39.494Z,74.30
2022-10-13T07:59:07.242Z,74.30
2022-10-13T08:01:34.121Z,74.10
2022-10-13T08:04:01.011Z,73.60
2022-10-13T08:06:27.907Z,73.30
2022-10-13T08:09:00.638Z,73.20
2022-10-13T08:11:27.921Z,73.20
2022-10-13T08:13:56.021Z,73.30
2022-10-13T08:16:22.997Z,73.00
2022-10-13T08:18:50.317Z,73.00
2022-10-13T08:21:57.075Z,73.20
2022-10-13T08:24:13.661Z,73.40
2022-10-13T08:26:41.959Z,73.70
2022-10-13T08:29:21.221Z,73.80
2022-10-13T08:34:18.480Z,73.60
2022-10-13T08:36:45.414Z,73.50
2022-10-13T08:39:13.047Z,73.40
2022-10-13T08:41:44.255Z,73.10
2022-10-13T08:45:10.498Z,72.90
2022-10-13T08:47:33.047Z,72.70
2022-10-13T08:50:02.079Z,72.70
2022-10-13T08:52:30.531Z,72.90
2022-10-13T08:54:58.884Z,73.30
2022-10-13T08:57:29.805Z,73.60
2022-10-13T08:59:56.680Z,74.00
2022-10-13T09:02:30.537Z,74.20
2022-10-13T09:05:04.581Z,74.30
2022-10-13T09:07:37.198Z,74.40
2022-10-13T09:10:04.687Z,74.20
2022-10-13T09:12:33.946Z,74.20
2022-10-13T09:15:06.064Z,74.10
2022-10-13T09:17:33.757Z,74.20
2022-10-13T09:20:19.806Z,74.40
2022-10-13T09:23:00.858Z,74.50
2022-10-13T09:25:29.243Z,74.50
2022-10-13T09:27:58.182Z,74.40
2022-10-13T09:30:25.985Z,74.50
2022-10-13T09:33:09.362Z,74.70
2022-10-13T09:35:37.773Z,74.70
2022-10-13T09:38:16.861Z,74.90
2022-10-13T09:40:55.730Z,74.60
2022-10-13T09:43:41.783Z,74.10
2022-10-13T09:46:31.991Z,73.40
2022-10-13T09:49:01.953Z,73.40
2022-10-13T09:51:42.837Z,74.40
2022-10-13T09:54:33.622Z,74.20
2022-10-13T09:57:03.884Z,74.70
2022-10-13T09:59:35.414Z,75.20
2022-10-13T10:02:24.996Z,75.40
2022-10-13T10:04:56.657Z,75.40
2022-10-13T10:07:27.534Z,75.40
2022-10-13T10:10:01.813Z,75.30
2022-10-13T10:12:30.232Z,75.30
2022-10-13T10:14:57.127Z,75.40
2022-10-13T10:17:30.110Z,75.00
2022-10-13T10:20:17.125Z,74.80
2022-10-13T10:22:44.110Z,74.70
2022-10-13T10:25:17.472Z,74.40
2022-10-13T10:27:50.455Z,74.40
2022-10-13T10:30:19.879Z,74.30
2022-10-13T10:32:54.044Z,74.10
2022-10-13T10:35:34.301Z,74.70
2022-10-13T10:38:01.172Z,74.30
2022-10-13T10:40:31.510Z,73.80
2022-10-13T10:43:36.897Z,73.60
2022-10-13T10:46:07.410Z,73.10
2022-10-13T10:48:35.894Z,72.90
2022-10-13T10:51:05.445Z,72.70
2022-10-13T10:53:51.703Z,72.20
2022-10-13T10:56:27.692Z,71.10
2022-10-13T10:58:59.968Z,70.70
2022-10-13T11:01:27.358Z,70.80
2022-10-13T11:04:00.504Z,70.90
2022-10-13T11:06:35.658Z,71.10
2022-10-13T11:09:03.244Z,70.60
2022-10-13T11:11:36.594Z,70.30
2022-10-13T11:14:09.939Z,70.20
2022-10-13T11:16:55.695Z,70.50
2022-10-13T11:19:30.481Z,70.50
2022-10-13T11:21:57.777Z,70.60
2022-10-13T11:24:48.138Z,69.30
2022-10-13T11:27:15.256Z,69.00
2022-10-13T11:29:57.855Z,68.60
2022-10-13T11:32:27.810Z,68.40
2022-10-13T11:35:03.178Z,68.90
2022-10-13T11:37:33.175Z,68.70
2022-10-13T11:40:11.894Z,68.20
2022-10-13T11:42:47.986Z,68.30
2022-10-13T11:45:23.867Z,67.30
2022-10-13T11:48:12.419Z,66.80
2022-10-13T11:50:46.363Z,66.70
2022-10-13T11:53:23.265Z,66.60
2022-10-13T11:55:54.616Z,66.80
2022-10-13T11:58:21.476Z,67.20
2022-10-13T12:00:54.425Z,66.80
2022-10-13T12:03:27.100Z,66.30
2022-10-13T12:05:57.951Z,66.60
2022-10-13T12:08:25.832Z,66.50
2022-10-13T12:10:56.355Z,66.00
2022-10-13T12:13:28.482Z,65.80
2022-10-13T12:16:03.764Z,64.90
2022-10-13T12:18:35.852Z,64.60
2022-10-13T12:21:04.335Z,64.70
2022-10-13T12:23:32.646Z,64.80
2022-10-13T12:26:00.218Z,64.90
2022-10-13T12:28:42.938Z,64.60
2022-10-13T12:31:17.451Z,64.50
2022-10-13T12:33:44.281Z,64.20
2022-10-13T12:36:17.063Z,64.00
2022-10-13T12:38:47.274Z,63.90
2022-10-13T12:41:16.715Z,63.60
2022-10-13T12:43:43.784Z,63.70
2022-10-13T12:46:10.919Z,63.20
2022-10-13T12:48:38.455Z,63.00
2022-10-13T12:51:31.803Z,62.50
2022-10-13T12:53:58.662Z,62.40
2022-10-13T12:56:29.422Z,62.00
2022-10-13T12:58:56.558Z,61.70
2022-10-13T13:01:33.540Z,61.70
2022-10-13T13:04:02.285Z,61.60
2022-10-13T13:06:33.735Z,61.50
2022-10-13T13:09:16.084Z,61.60
2022-10-13T13:11:44.310Z,61.80
2022-10-13T13:14:24.145Z,61.40
2022-10-13T13:17:09.879Z,61.00
2022-10-13T13:19:37.417Z,60.90
2022-10-13T13:22:05.343Z,61.10
2022-10-13T13:24:39.919Z,61.20
2022-10-13T13:27:15.594Z,61.20
2022-10-13T13:29:42.500Z,61.20
2022-10-13T13:32:12.173Z,61.20
2022-10-13T13:34:38.970Z,61.40
2022-10-13T13:37:05.780Z,61.70
2022-10-13T13:39:32.544Z,61.60
2022-10-13T13:41:59.341Z,61.70
2022-10-13T13:44:26.295Z,61.70
2022-10-13T13:46:53.147Z,61.60
2022-10-13T13:49:19.978Z,62.10
2022-10-13T13:51:46.754Z,61.00
2022-10-13T13:54:13.574Z,60.60
2022-10-13T13:56:40.503Z,60.50
2022-10-13T13:59:07.295Z,60.60
2022-10-13T14:01:34.215Z,60.40
2022-10-13T14:04:03.054Z,60.50
2022-10-13T14:06:29.940Z,60.50
2022-10-13T14:08:56.764Z,60.30
2022-10-13T14:11:23.638Z,60.30
2022-10-13T14:13:50.453Z,60.30
2022-10-13T14:16:25.711Z,60.40
2022-10-13T14:18:52.873Z,60.30
2022-10-13T14:21:20.073Z,60.30
2022-10-13T14:23:47.037Z,60.80
2022-10-13T14:26:14.161Z,61.10
2022-10-13T14:28:42.314Z,61.10
2022-10-13T14:31:09.634Z,61.20
2022-10-13T14:33:37.908Z,61.30
2022-10-13T14:36:06.530Z,61.10
2022-10-13T14:38:33.964Z,60.90
2022-10-13T14:41:01.654Z,61.00
2022-10-13T14:43:28.816Z,60.80
2022-10-13T14:45:55.961Z,60.60
2022-10-13T14:48:24.914Z,60.50
2022-10-13T14:50:51.816Z,60.30
2022-10-13T14:53:18.672Z,60.20
2022-10-13T14:55:45.503Z,60.30
2022-10-13T14:58:12.449Z,60.30
2022-10-13T15:00:39.506Z,60.40
2022-10-13T15:03:10.263Z,60.50
2022-10-13T15:05:37.075Z,60.60
2022-10-13T15:08:03.990Z,60.90
2022-10-13T15:10:31.190Z,61.10
2022-10-13T15:12:58.310Z,61.00
2022-10-13T15:15:25.555Z,61.00
2022-10-13T15:17:54.351Z,61.00
2022-10-13T15:20:21.172Z,61.20
2022-10-13T15:22:48.548Z,61.30
2022-10-13T15:25:15.449Z,61.50
2022-10-13T15:27:42.417Z,61.60
2022-10-13T15:30:09.827Z,61.50
2022-10-13T15:32:36.887Z,61.50
2022-10-13T15:35:04.186Z,61.60
2022-10-13T15:37:34.205Z,61.60
2022-10-13T15:40:01.302Z,61.70
2022-10-13T15:42:28.456Z,62.30
2022-10-13T15:45:11.677Z,61.40
2022-10-13T15:47:38.901Z,61.30
2022-10-13T15:50:06.144Z,60.80
2022-10-13T15:52:36.972Z,61.40
2022-10-13T15:55:04.103Z,60.50
2022-10-13T15:57:31.366Z,61.00
2022-10-13T16:00:01.801Z,61.00
2022-10-13T16:02:40.437Z,61.20
2022-10-13T16:05:08.261Z,61.30
2022-10-13T16:07:35.565Z,61.40
2022-10-13T16:10:05.105Z,61.60
2022-10-13T16:12:32.308Z,61.80
2022-10-13T16:14:59.217Z,62.10
2022-10-13T16:17:26.295Z,62.10
2022-10-13T16:19:53.571Z,61.90
2022-10-13T16:22:20.612Z,62.10
2022-10-13T16:24:47.911Z,62.30
2022-10-13T16:27:14.771Z,62.40
2022-10-13T16:29:41.748Z,62.50
2022-10-13T16:32:08.639Z,62.90
2022-10-13T16:34:35.660Z,63.00
2022-10-13T16:37:03.522Z,63.10
2022-10-13T16:39:30.573Z,63.60
2022-10-13T16:41:57.513Z,64.20
2022-10-13T16:44:25.040Z,64.50
2022-10-13T16:46:53.890Z,64.60
2022-10-13T16:49:20.695Z,64.60
2022-10-13T16:51:47.583Z,64.70
2022-10-13T16:54:14.467Z,64.80
2022-10-13T16:56:41.242Z,64.90
2022-10-13T16:59:08.090Z,64.90
2022-10-13T17:01:35.803Z,64.70
2022-10-13T17:04:03.671Z,64.80
2022-10-13T17:06:31.121Z,64.80
2022-10-13T17:08:58.789Z,64.90
2022-10-13T17:11:26.936Z,65.00
2022-10-13T17:13:55.523Z,65.20
2022-10-13T17:16:23.893Z,65.20
2022-10-13T17:18:50.749Z,65.20
2022-10-13T17:21:18.186Z,65.20
2022-10-13T17:23:48.602Z,65.20
2022-10-13T17:26:17.185Z,65.30
2022-10-13T17:28:44.943Z,65.40
2022-10-13T17:31:13.662Z,65.50
2022-10-13T17:33:41.056Z,65.50
2022-10-13T17:36:15.352Z,65.50
2022-10-13T17:38:43.156Z,65.30
2022-10-13T17:41:10.339Z,65.20
2022-10-13T17:43:41.973Z,65.30
2022-10-13T17:46:36.972Z,65.50
2022-10-13T17:49:03.409Z,65.80
2022-10-13T17:51:30.170Z,65.90
2022-10-13T17:53:58.917Z,66.10
2022-10-13T17:56:29.929Z,66.30
2022-10-13T17:58:57.095Z,66.30
2022-10-13T18:01:26.306Z,66.40
2022-10-13T18:03:55.470Z,66.40
2022-10-13T18:06:26.856Z,66.40
2022-10-13T18:08:53.736Z,66.50
2022-10-13T18:11:21.539Z,66.50
2022-10-13T18:13:48.600Z,66.60
2022-10-13T18:16:20.233Z,66.60
2022-10-13T18:18:47.559Z,66.50
2022-10-13T18:21:15.408Z,66.60
2022-10-13T18:23:45.420Z,66.70
2022-10-13T18:26:14.312Z,66.10
2022-10-13T18:28:43.580Z,65.80
2022-10-13T18:31:19.808Z,65.80
2022-10-13T18:33:46.906Z,65.90
2022-10-13T18:36:25.912Z,65.90
2022-10-13T18:38:53.892Z,65.90
2022-10-13T18:41:22.124Z,65.90
2022-10-13T18:43:49.188Z,65.80
2022-10-13T18:46:18.960Z,65.80
2022-10-13T18:48:47.700Z,66.00
2022-10-13T18:51:16.061Z,66.20
2022-10-13T18:53:44.069Z,66.40
2022-10-13T18:56:13.364Z,66.80
2022-10-13T18:58:41.111Z,67.10
2022-10-13T19:01:10.209Z,67.40
2022-10-13T19:03:37.898Z,67.60
2022-10-13T19:06:05.800Z,67.90
2022-10-13T19:08:32.845Z,68.00
2022-10-13T19:10:59.947Z,68.10
2022-10-13T19:13:27.817Z,68.20
2022-10-13T19:16:01.215Z,68.20
2022-10-13T19:18:28.195Z,68.30
2022-10-13T19:20:55.039Z,68.20
2022-10-13T19:23:22.254Z,68.20
2022-10-13T19:25:49.415Z,68.00
2022-10-13T19:28:17.378Z,68.00
2022-10-13T19:30:44.422Z,68.10
2022-10-13T19:33:11.824Z,68.10
2022-10-13T19:35:48.040Z,68.10
2022-10-13T19:38:15.609Z,68.40
2022-10-13T19:40:43.753Z,68.40
2022-10-13T19:43:10.626Z,68.50
2022-10-13T19:45:43.209Z,68.70
2022-10-13T19:48:11.228Z,68.70
2022-10-13T19:50:38.031Z,68.70
2022-10-13T19:53:04.842Z,68.70
2022-10-13T19:55:37.005Z,68.70
2022-10-13T19:58:03.869Z,68.70
2022-10-13T20:00:30.781Z,68.80
2022-10-13T20:02:57.737Z,68.80
2022-10-13T20:05:25.652Z,68.90
2022-10-13T20:07:52.668Z,69.00
2022-10-13T20:10:19.499Z,69.00
2022-10-13T20:12:46.392Z,69.00
2022-10-13T20:15:13.408Z,69.00
2022-10-13T20:17:42.714Z,69.00
2022-10-13T20:20:09.681Z,69.00
2022-10-13T20:22:36.638Z,69.00
2022-10-13T20:25:05.848Z,69.10
2022-10-13T20:27:32.729Z,69.10
2022-10-13T20:30:01.603Z,69.10
2022-10-13T20:32:28.736Z,69.20
2022-10-13T20:34:55.520Z,69.30
2022-10-13T20:37:23.025Z,69.30
2022-10-13T20:39:50.217Z,69.30
2022-10-13T20:42:17.366Z,69.40
2022-10-13T20:44:44.256Z,69.40
2022-10-13T20:47:11.095Z,69.30
2022-10-13T20:49:38.036Z,69.40
2022-10-13T20:52:05.037Z,69.30
2022-10-13T20:54:31.810Z,69.30
2022-10-13T20:56:58.748Z,69.20
2022-10-13T20:59:25.694Z,69.20
2022-10-13T21:01:52.791Z,69.20
2022-10-13T21:04:19.643Z,69.20
2022-10-13T21:06:46.487Z,69.20
2022-10-13T21:09:13.286Z,69.30
2022-10-13T21:11:41.851Z,69.40
2022-10-13T21:14:09.807Z,69.50
2022-10-13T21:16:36.802Z,69.40
2022-10-13T21:19:08.499Z,69.50
2022-10-13T21:21:36.296Z,69.50
2022-10-13T21:24:07.145Z,69.50
2022-10-13T21:26:34.750Z,69.50
2022-10-13T21:29:02.007Z,69.60
2022-10-13T21:31:30.325Z,69.70
2022-10-13T21:33:57.484Z,69.90
2022-10-13T21:36:28.766Z,69.80
2022-10-13T21:38:57.204Z,69.90
2022-10-13T21:41:24.505Z,69.90
2022-10-13T21:43:51.666Z,70.00
2022-10-13T21:46:25.503Z,70.00
2022-10-13T21:48:53.647Z,69.90
2022-10-13T21:51:20.402Z,70.00
2022-10-13T21:53:51.463Z,70.00
2022-10-13T21:56:19.176Z,70.00
2022-10-13T21:58:46.014Z,70.00
2022-10-13T22:01:13.432Z,70.00
2022-10-13T22:03:41.699Z,70.00
2022-10-13T22:06:19.199Z,70.80
2022-10-13T22:08:48.438Z,70.10
2022-10-13T22:11:21.356Z,70.00
2022-10-13T22:13:48.261Z,70.10
2022-10-13T22:16:22.921Z,70.10
2022-10-13T22:18:53.843Z,70.10
2022-10-13T22:21:22.335Z,70.20
2022-10-13T22:23:49.432Z,70.30
2022-10-13T22:26:17.057Z,70.30
2022-10-13T22:28:48.259Z,70.30
2022-10-13T22:31:15.142Z,70.30
2022-10-13T22:33:42.932Z,70.30
2022-10-13T22:36:14.747Z,70.40
2022-10-13T22:38:41.739Z,70.40
2022-10-13T22:41:08.717Z,70.40
2022-10-13T22:43:36.027Z,70.40
2022-10-13T22:46:12.245Z,70.50
2022-10-13T22:48:40.902Z,70.50
2022-10-13T22:51:12.194Z,71.30
2022-10-13T22:53:38.986Z,70.50
2022-10-13T22:56:07.406Z,70.50
2022-10-13T22:58:37.376Z,70.60
2022-10-13T23:01:05.404Z,70.60
2022-10-13T23:03:32.243Z,70.60
2022-10-13T23:06:01.814Z,70.60
2022-10-13T23:08:28.588Z,70.60
2022-10-13T23:10:55.437Z,70.70
2022-10-13T23:13:22.280Z,70.70
2022-10-13T23:15:50.402Z,70.80
2022-10-13T23:18:17.308Z,70.70
2022-10-13T23:20:44.068Z,70.70
2022-10-13T23:23:13.593Z,70.70
2022-10-13T23:25:40.351Z,70.80
2022-10-13T23:28:07.149Z,70.70
2022-10-13T23:30:33.998Z,70.80
2022-10-13T23:33:00.981Z,70.80
2022-10-13T23:35:27.889Z,70.80
2022-10-13T23:37:54.922Z,70.90
2022-10-13T23:40:21.701Z,70.90
2022-10-13T23:42:48.511Z,70.90
2022-10-13T23:45:15.468Z,71.00
2022-10-13T23:47:42.258Z,71.00
2022-10-13T23:50:09.297Z,71.00
2022-10-13T23:52:36.216Z,71.00
2022-10-13T23:55:03.283Z,71.00
2022-10-13T23:57:30.191Z,71.00
2022-10-13T23:59:56.985Z,71.10
